ADDS METAR Data INFO
IDs: Format: Raw Decoded Include TAF

Data at: 1927 UTC 19 Jul 2018

KOLV 191850Z 19007KT 10SM FEW030 SCT090 SCT250 33/26 A2990
KOLV 191750Z 18003KT 10SM FEW030 SCT090 SCT250 32/25 A2992
KOLV 191650Z 17005KT 10SM SCT040 31/26 A2993
KOLV 191550Z 18003KT 10SM FEW040 30/26 A2993
KOLV 191450Z 18004KT 10SM FEW095 28/26 A2994
KOLV 191350Z 16004KT 10SM SCT180 26/25 A2996
KOLV 191250Z 00000KT 10SM BKN180 24/24 A2996
KOLV 191150Z 00000KT 10SM SCT120 22/22 A2993
KOLV 190050Z 00000KT 10SM BKN170 BKN200 24/23 A2993
KOLV 182350Z 00000KT 10SM FEW008 BKN130 BKN250 24/23 A2992
KOLV 182250Z 03007KT 7SM FEW008 BKN150 OVC250 24/23 A2994
KOLV 182150Z 03007KT 7SM SCT008 SCT070 BKN150 24/23 A2996
KOLV 182050Z 20010G16KT 4SM VCSH FEW050 BKN100 OVC250 23/23 A2996
KOLV 182035Z 23008KT 4SM VCSH SCT060 BKN100 OVC250 23/23 A2996
KOLV 181950Z COR VRB08KT 2SM RA BKN005 BKN022 OVC250 23/23 A2997 RMK TSE50 TS NW MOV S
KOLV 181850Z 27009G16KT 3SM TSRA BKN029 OVC065 27/26 A2997 RMK OCNL LTGIC TSB50 TS NW MOV SE
KOLV 181750Z 09005KT 10SM VCTS BKN029 BKN050 OVC100 32/25 A2997
KOLV 181650Z 00000KT 10SM SCT025 SCT120 BKN250 31/26 A2999
KOLV 181550Z 00000KT 10SM SCT025 BKN250 31/27 A3001
KOLV 181450Z 00000KT 10SM FEW150 BKN250 29/26 A3001
KOLV 181350Z 00000KT 10SM FEW150 BKN250 27/26 A3001
KOLV 181250Z 00000KT 10SM FEW150 BKN250 25/25 A3001
KOLV 181150Z 00000KT 10SM SCT024 BKN200 24/24 A3001